sensor_id;sensor_type;location;lat;lon;timestamp;temperature;humidity
14471;DHT22;7321;50.802;4.336;2022-11-15T00:01:44;13.50;99.90
14471;DHT22;7321;50.802;4.336;2022-11-15T00:04:12;13.50;99.90
14471;DHT22;7321;50.802;4.336;2022-11-15T00:06:51;13.40;99.90
14471;DHT22;7321;50.802;4.336;2022-11-15T00:09:35;13.40;99.90
14471;DHT22;7321;50.802;4.336;2022-11-15T00:12:03;13.30;99.90
14471;DHT22;7321;50.802;4.336;2022-11-15T00:14:29;13.30;99.90
14471;DHT22;7321;50.802;4.336;2022-11-15T00:16:55;13.50;99.90
14471;DHT22;7321;50.802;4.336;2022-11-15T00:19:26;13.50;99.90
14471;DHT22;7321;50.802;4.336;2022-11-15T00:22:15;13.60;99.90
14471;DHT22;7321;50.802;4.336;2022-11-15T00:24:50;13.60;99.90
14471;DHT22;7321;50.802;4.336;2022-11-15T00:27:18;13.60;99.90
14471;DHT22;7321;50.802;4.336;2022-11-15T00:29:44;13.50;99.90
14471;DHT22;7321;50.802;4.336;2022-11-15T00:32:10;13.50;99.90
14471;DHT22;7321;50.802;4.336;2022-11-15T00:34:36;13.50;99.90
14471;DHT22;7321;50.802;4.336;2022-11-15T00:37:02;13.70;99.90
14471;DHT22;7321;50.802;4.336;2022-11-15T00:39:27;13.60;99.90
14471;DHT22;7321;50.802;4.336;2022-11-15T00:41:53;13.60;99.90
14471;DHT22;7321;50.802;4.336;2022-11-15T00:44:19;13.70;99.90
14471;DHT22;7321;50.802;4.336;2022-11-15T00:46:45;13.80;99.90
14471;DHT22;7321;50.802;4.336;2022-11-15T00:49:10;13.80;99.90
14471;DHT22;7321;50.802;4.336;2022-11-15T00:51:36;13.90;99.90
14471;DHT22;7321;50.802;4.336;2022-11-15T00:54:02;13.90;99.90
14471;DHT22;7321;50.802;4.336;2022-11-15T00:56:28;13.90;99.90
14471;DHT22;7321;50.802;4.336;2022-11-15T00:58:53;13.80;99.90
14471;DHT22;7321;50.802;4.336;2022-11-15T01:01:19;13.80;99.90
14471;DHT22;7321;50.802;4.336;2022-11-15T01:03:45;13.80;99.90
14471;DHT22;7321;50.802;4.336;2022-11-15T01:06:11;13.80;99.90
14471;DHT22;7321;50.802;4.336;2022-11-15T01:08:39;13.80;99.90
14471;DHT22;7321;50.802;4.336;2022-11-15T01:11:07;13.70;99.90
14471;DHT22;7321;50.802;4.336;2022-11-15T01:13:35;13.70;99.90
14471;DHT22;7321;50.802;4.336;2022-11-15T01:16:12;13.70;99.90
14471;DHT22;7321;50.802;4.336;2022-11-15T01:18:39;13.60;99.90
14471;DHT22;7321;50.802;4.336;2022-11-15T01:21:14;13.70;99.90
14471;DHT22;7321;50.802;4.336;2022-11-15T01:23:39;13.80;99.90
14471;DHT22;7321;50.802;4.336;2022-11-15T01:26:07;13.70;99.90
14471;DHT22;7321;50.802;4.336;2022-11-15T01:28:34;13.70;99.90
14471;DHT22;7321;50.802;4.336;2022-11-15T01:31:02;13.70;99.90
14471;DHT22;7321;50.802;4.336;2022-11-15T01:33:29;13.70;99.90
14471;DHT22;7321;50.802;4.336;2022-11-15T01:35:55;13.60;99.90
14471;DHT22;7321;50.802;4.336;2022-11-15T01:38:22;13.70;99.90
14471;DHT22;7321;50.802;4.336;2022-11-15T01:40:48;13.70;99.90
14471;DHT22;7321;50.802;4.336;2022-11-15T01:43:32;13.80;99.90
14471;DHT22;7321;50.802;4.336;2022-11-15T01:46:04;13.90;99.90
14471;DHT22;7321;50.802;4.336;2022-11-15T01:48:35;13.80;99.90
14471;DHT22;7321;50.802;4.336;2022-11-15T01:51:04;13.90;99.90
14471;DHT22;7321;50.802;4.336;2022-11-15T01:53:34;13.80;99.90
14471;DHT22;7321;50.802;4.336;2022-11-15T01:56:06;13.80;99.90
14471;DHT22;7321;50.802;4.336;2022-11-15T01:58:33;13.80;99.90
14471;DHT22;7321;50.802;4.336;2022-11-15T02:00:59;13.80;99.90
14471;DHT22;7321;50.802;4.336;2022-11-15T02:06:12;13.90;99.90
14471;DHT22;7321;50.802;4.336;2022-11-15T02:08:38;13.80;99.90
14471;DHT22;7321;50.802;4.336;2022-11-15T02:11:08;13.80;99.90
14471;DHT22;7321;50.802;4.336;2022-11-15T02:13:35;13.80;99.90
14471;DHT22;7321;50.802;4.336;2022-11-15T02:16:58;13.90;99.90
14471;DHT22;7321;50.802;4.336;2022-11-15T02:32:48;13.80;99.90
14471;DHT22;7321;50.802;4.336;2022-11-15T02:35:41;13.70;99.90
14471;DHT22;7321;50.802;4.336;2022-11-15T02:40:42;13.80;99.90
14471;DHT22;7321;50.802;4.336;2022-11-15T02:43:12;13.80;99.90
14471;DHT22;7321;50.802;4.336;2022-11-15T02:46:32;13.90;99.90
14471;DHT22;7321;50.802;4.336;2022-11-15T02:49:18;13.80;99.90
14471;DHT22;7321;50.802;4.336;2022-11-15T02:51:45;13.80;99.90
14471;DHT22;7321;50.802;4.336;2022-11-15T02:54:15;13.80;99.90
14471;DHT22;7321;50.802;4.336;2022-11-15T02:56:44;13.70;99.90
14471;DHT22;7321;50.802;4.336;2022-11-15T02:59:37;13.70;99.90
14471;DHT22;7321;50.802;4.336;2022-11-15T03:04:57;13.70;99.90
14471;DHT22;7321;50.802;4.336;2022-11-15T03:14:00;13.80;99.90
14471;DHT22;7321;50.802;4.336;2022-11-15T03:16:13;13.80;99.90
14471;DHT22;7321;50.802;4.336;2022-11-15T03:18:45;13.80;99.90
14471;DHT22;7321;50.802;4.336;2022-11-15T03:21:14;13.80;99.90
14471;DHT22;7321;50.802;4.336;2022-11-15T03:23:45;13.80;99.90
14471;DHT22;7321;50.802;4.336;2022-11-15T03:26:14;13.80;99.90
14471;DHT22;7321;50.802;4.336;2022-11-15T03:28:50;13.70;99.90
14471;DHT22;7321;50.802;4.336;2022-11-15T03:31:18;13.40;99.90
14471;DHT22;7321;50.802;4.336;2022-11-15T03:34:06;13.50;99.90
14471;DHT22;7321;50.802;4.336;2022-11-15T03:36:33;13.60;99.90
14471;DHT22;7321;50.802;4.336;2022-11-15T03:39:03;13.50;99.90
14471;DHT22;7321;50.802;4.336;2022-11-15T03:41:39;13.60;99.90
14471;DHT22;7321;50.802;4.336;2022-11-15T03:44:29;13.50;99.90
14471;DHT22;7321;50.802;4.336;2022-11-15T03:49:35;13.50;99.90
14471;DHT22;7321;50.802;4.336;2022-11-15T03:52:03;13.50;99.90
14471;DHT22;7321;50.802;4.336;2022-11-15T03:54:30;13.50;99.90
14471;DHT22;7321;50.802;4.336;2022-11-15T03:56:55;13.60;99.90
14471;DHT22;7321;50.802;4.336;2022-11-15T03:59:22;13.60;99.90
14471;DHT22;7321;50.802;4.336;2022-11-15T04:01:48;13.50;99.90
14471;DHT22;7321;50.802;4.336;2022-11-15T04:04:13;13.50;99.90
14471;DHT22;7321;50.802;4.336;2022-11-15T04:06:39;13.50;99.90
14471;DHT22;7321;50.802;4.336;2022-11-15T04:09:05;13.40;99.90
14471;DHT22;7321;50.802;4.336;2022-11-15T04:11:31;13.40;99.90
14471;DHT22;7321;50.802;4.336;2022-11-15T04:13:59;13.30;99.90
14471;DHT22;7321;50.802;4.336;2022-11-15T04:16:25;13.30;99.90
14471;DHT22;7321;50.802;4.336;2022-11-15T04:18:54;13.40;99.90
14471;DHT22;7321;50.802;4.336;2022-11-15T04:21:38;13.50;99.90
14471;DHT22;7321;50.802;4.336;2022-11-15T04:24:33;13.40;99.90
14471;DHT22;7321;50.802;4.336;2022-11-15T04:26:59;13.40;99.90
14471;DHT22;7321;50.802;4.336;2022-11-15T04:29:25;13.40;99.90
14471;DHT22;7321;50.802;4.336;2022-11-15T04:32:05;13.40;99.90
14471;DHT22;7321;50.802;4.336;2022-11-15T04:34:32;13.40;99.90
14471;DHT22;7321;50.802;4.336;2022-11-15T04:36:58;13.30;99.90
14471;DHT22;7321;50.802;4.336;2022-11-15T04:39:43;13.20;99.90
14471;DHT22;7321;50.802;4.336;2022-11-15T04:42:09;13.10;99.90
14471;DHT22;7321;50.802;4.336;2022-11-15T04:44:35;13.00;99.90
14471;DHT22;7321;50.802;4.336;2022-11-15T04:47:04;13.00;99.90
14471;DHT22;7321;50.802;4.336;2022-11-15T04:49:30;13.10;99.90
14471;DHT22;7321;50.802;4.336;2022-11-15T04:51:56;13.00;99.90
14471;DHT22;7321;50.802;4.336;2022-11-15T04:54:25;13.00;99.90
14471;DHT22;7321;50.802;4.336;2022-11-15T04:56:51;13.10;99.90
14471;DHT22;7321;50.802;4.336;2022-11-15T04:59:16;13.00;99.90
14471;DHT22;7321;50.802;4.336;2022-11-15T05:01:42;12.90;99.90
14471;DHT22;7321;50.802;4.336;2022-11-15T05:04:08;12.70;99.90
14471;DHT22;7321;50.802;4.336;2022-11-15T05:06:50;12.60;99.90
14471;DHT22;7321;50.802;4.336;2022-11-15T05:09:17;12.50;99.90
14471;DHT22;7321;50.802;4.336;2022-11-15T05:11:46;12.50;99.90
14471;DHT22;7321;50.802;4.336;2022-11-15T05:14:12;12.60;99.90
14471;DHT22;7321;50.802;4.336;2022-11-15T05:16:38;12.60;99.90
14471;DHT22;7321;50.802;4.336;2022-11-15T05:19:07;12.60;99.90
14471;DHT22;7321;50.802;4.336;2022-11-15T05:21:34;12.60;99.90
14471;DHT22;7321;50.802;4.336;2022-11-15T05:24:00;12.50;99.90
14471;DHT22;7321;50.802;4.336;2022-11-15T05:26:29;12.40;99.90
14471;DHT22;7321;50.802;4.336;2022-11-15T05:28:56;12.40;99.90
14471;DHT22;7321;50.802;4.336;2022-11-15T05:31:24;12.40;99.90
14471;DHT22;7321;50.802;4.336;2022-11-15T05:33:51;12.30;99.90
14471;DHT22;7321;50.802;4.336;2022-11-15T05:36:31;12.40;99.90
14471;DHT22;7321;50.802;4.336;2022-11-15T05:38:57;12.40;99.90
14471;DHT22;7321;50.802;4.336;2022-11-15T05:41:33;12.30;99.90
14471;DHT22;7321;50.802;4.336;2022-11-15T05:44:01;12.20;99.90
14471;DHT22;7321;50.802;4.336;2022-11-15T05:46:29;12.20;99.90
14471;DHT22;7321;50.802;4.336;2022-11-15T05:48:56;12.10;99.90
14471;DHT22;7321;50.802;4.336;2022-11-15T05:51:23;12.10;99.90
14471;DHT22;7321;50.802;4.336;2022-11-15T05:53:50;12.10;99.90
14471;DHT22;7321;50.802;4.336;2022-11-15T05:56:16;12.10;99.90
14471;DHT22;7321;50.802;4.336;2022-11-15T05:58:45;12.10;99.90
14471;DHT22;7321;50.802;4.336;2022-11-15T06:01:11;12.00;99.90
14471;DHT22;7321;50.802;4.336;2022-11-15T06:03:37;11.90;99.90
14471;DHT22;7321;50.802;4.336;2022-11-15T06:06:03;11.90;99.90
14471;DHT22;7321;50.802;4.336;2022-11-15T06:08:28;11.90;99.90
14471;DHT22;7321;50.802;4.336;2022-11-15T06:10:54;11.90;99.90
14471;DHT22;7321;50.802;4.336;2022-11-15T06:13:20;11.80;99.90
14471;DHT22;7321;50.802;4.336;2022-11-15T06:15:46;11.80;99.90
14471;DHT22;7321;50.802;4.336;2022-11-15T06:18:11;11.70;99.90
14471;DHT22;7321;50.802;4.336;2022-11-15T06:20:37;11.80;99.90
14471;DHT22;7321;50.802;4.336;2022-11-15T06:23:04;11.80;99.90
14471;DHT22;7321;50.802;4.336;2022-11-15T06:25:30;11.80;99.90
14471;DHT22;7321;50.802;4.336;2022-11-15T06:27:57;11.80;99.90
14471;DHT22;7321;50.802;4.336;2022-11-15T06:30:24;11.90;99.90
14471;DHT22;7321;50.802;4.336;2022-11-15T06:32:51;11.90;99.90
14471;DHT22;7321;50.802;4.336;2022-11-15T06:35:17;11.90;99.90
14471;DHT22;7321;50.802;4.336;2022-11-15T06:37:43;11.80;99.90
14471;DHT22;7321;50.802;4.336;2022-11-15T06:40:09;11.70;99.90
14471;DHT22;7321;50.802;4.336;2022-11-15T06:42:35;11.60;99.90
14471;DHT22;7321;50.802;4.336;2022-11-15T06:45:02;11.60;99.90
14471;DHT22;7321;50.802;4.336;2022-11-15T06:47:28;11.60;99.90
14471;DHT22;7321;50.802;4.336;2022-11-15T06:49:53;11.70;99.90
14471;DHT22;7321;50.802;4.336;2022-11-15T06:52:19;11.80;99.90
14471;DHT22;7321;50.802;4.336;2022-11-15T06:54:45;11.70;99.90
14471;DHT22;7321;50.802;4.336;2022-11-15T06:57:11;11.50;99.90
14471;DHT22;7321;50.802;4.336;2022-11-15T06:59:37;11.30;99.90
14471;DHT22;7321;50.802;4.336;2022-11-15T07:02:03;11.30;99.90
14471;DHT22;7321;50.802;4.336;2022-11-15T07:04:29;11.20;99.90
14471;DHT22;7321;50.802;4.336;2022-11-15T07:06:55;11.20;99.90
14471;DHT22;7321;50.802;4.336;2022-11-15T07:09:21;11.10;99.90
14471;DHT22;7321;50.802;4.336;2022-11-15T07:11:46;11.10;99.90
14471;DHT22;7321;50.802;4.336;2022-11-15T07:14:12;11.10;99.90
14471;DHT22;7321;50.802;4.336;2022-11-15T07:16:39;11.10;99.90
14471;DHT22;7321;50.802;4.336;2022-11-15T07:19:05;11.00;99.90
14471;DHT22;7321;50.802;4.336;2022-11-15T07:21:39;10.90;99.90
14471;DHT22;7321;50.802;4.336;2022-11-15T07:24:08;10.80;99.90
14471;DHT22;7321;50.802;4.336;2022-11-15T07:26:46;10.80;99.90
14471;DHT22;7321;50.802;4.336;2022-11-15T07:29:12;10.70;99.90
14471;DHT22;7321;50.802;4.336;2022-11-15T07:31:40;10.70;99.90
14471;DHT22;7321;50.802;4.336;2022-11-15T07:34:06;10.60;99.90
14471;DHT22;7321;50.802;4.336;2022-11-15T07:36:32;10.60;99.90
14471;DHT22;7321;50.802;4.336;2022-11-15T07:38:58;10.70;99.90
14471;DHT22;7321;50.802;4.336;2022-11-15T07:41:26;10.70;99.90
14471;DHT22;7321;50.802;4.336;2022-11-15T07:43:52;10.80;99.90
14471;DHT22;7321;50.802;4.336;2022-11-15T07:46:18;10.70;99.90
14471;DHT22;7321;50.802;4.336;2022-11-15T07:48:47;10.60;99.90
14471;DHT22;7321;50.802;4.336;2022-11-15T07:51:16;10.60;99.90
14471;DHT22;7321;50.802;4.336;2022-11-15T07:53:43;10.70;99.90
14471;DHT22;7321;50.802;4.336;2022-11-15T07:56:09;10.70;99.90
14471;DHT22;7321;50.802;4.336;2022-11-15T07:58:35;10.70;99.90
14471;DHT22;7321;50.802;4.336;2022-11-15T08:01:05;10.80;99.90
14471;DHT22;7321;50.802;4.336;2022-11-15T08:03:32;10.70;99.90
14471;DHT22;7321;50.802;4.336;2022-11-15T08:05:58;10.90;99.90
14471;DHT22;7321;50.802;4.336;2022-11-15T08:08:24;10.90;99.90
14471;DHT22;7321;50.802;4.336;2022-11-15T08:10:50;10.90;99.90
14471;DHT22;7321;50.802;4.336;2022-11-15T08:13:16;10.90;99.90
14471;DHT22;7321;50.802;4.336;2022-11-15T08:15:42;10.90;99.90
14471;DHT22;7321;50.802;4.336;2022-11-15T08:18:12;10.90;99.90
14471;DHT22;7321;50.802;4.336;2022-11-15T08:20:38;10.90;99.90
14471;DHT22;7321;50.802;4.336;2022-11-15T08:23:05;10.90;99.90
14471;DHT22;7321;50.802;4.336;2022-11-15T08:25:32;10.90;99.90
14471;DHT22;7321;50.802;4.336;2022-11-15T08:28:01;11.00;99.90
14471;DHT22;7321;50.802;4.336;2022-11-15T08:30:27;11.00;99.90
14471;DHT22;7321;50.802;4.336;2022-11-15T08:32:55;11.10;99.90
14471;DHT22;7321;50.802;4.336;2022-11-15T08:35:21;11.00;99.90
14471;DHT22;7321;50.802;4.336;2022-11-15T08:37:47;11.20;99.90
14471;DHT22;7321;50.802;4.336;2022-11-15T08:40:13;11.20;99.90
14471;DHT22;7321;50.802;4.336;2022-11-15T08:42:39;11.20;99.90
14471;DHT22;7321;50.802;4.336;2022-11-15T08:45:06;11.00;99.90
14471;DHT22;7321;50.802;4.336;2022-11-15T08:47:32;11.00;99.90
14471;DHT22;7321;50.802;4.336;2022-11-15T08:49:58;11.00;99.90
14471;DHT22;7321;50.802;4.336;2022-11-15T08:52:24;11.20;99.90
14471;DHT22;7321;50.802;4.336;2022-11-15T08:54:49;11.20;99.90
14471;DHT22;7321;50.802;4.336;2022-11-15T08:57:15;11.30;99.90
14471;DHT22;7321;50.802;4.336;2022-11-15T08:59:41;11.30;99.90
14471;DHT22;7321;50.802;4.336;2022-11-15T09:02:12;11.30;99.90
14471;DHT22;7321;50.802;4.336;2022-11-15T09:04:40;11.40;99.90
14471;DHT22;7321;50.802;4.336;2022-11-15T09:07:11;11.40;99.90
14471;DHT22;7321;50.802;4.336;2022-11-15T09:09:37;11.50;99.90
14471;DHT22;7321;50.802;4.336;2022-11-15T09:12:04;11.50;99.90
14471;DHT22;7321;50.802;4.336;2022-11-15T09:14:31;11.40;99.90
14471;DHT22;7321;50.802;4.336;2022-11-15T09:16:57;11.50;99.90
14471;DHT22;7321;50.802;4.336;2022-11-15T09:19:23;11.60;99.90
14471;DHT22;7321;50.802;4.336;2022-11-15T09:21:49;11.60;99.90
14471;DHT22;7321;50.802;4.336;2022-11-15T09:24:15;11.70;99.90
14471;DHT22;7321;50.802;4.336;2022-11-15T09:26:41;11.80;99.90
14471;DHT22;7321;50.802;4.336;2022-11-15T09:29:07;11.90;99.90
14471;DHT22;7321;50.802;4.336;2022-11-15T09:31:36;11.80;99.90
14471;DHT22;7321;50.802;4.336;2022-11-15T09:34:05;11.80;99.90
14471;DHT22;7321;50.802;4.336;2022-11-15T09:36:30;12.00;99.90
14471;DHT22;7321;50.802;4.336;2022-11-15T09:38:57;12.10;99.90
14471;DHT22;7321;50.802;4.336;2022-11-15T09:41:48;12.00;99.90
14471;DHT22;7321;50.802;4.336;2022-11-15T09:49:54;12.30;99.90
14471;DHT22;7321;50.802;4.336;2022-11-15T09:52:23;12.30;99.90
14471;DHT22;7321;50.802;4.336;2022-11-15T09:54:50;12.20;99.90
14471;DHT22;7321;50.802;4.336;2022-11-15T10:03:06;12.30;99.90
14471;DHT22;7321;50.802;4.336;2022-11-15T10:05:47;12.40;99.90
14471;DHT22;7321;50.802;4.336;2022-11-15T10:08:25;12.40;99.90
14471;DHT22;7321;50.802;4.336;2022-11-15T10:10:59;12.40;99.90
14471;DHT22;7321;50.802;4.336;2022-11-15T10:13:28;12.30;99.90
14471;DHT22;7321;50.802;4.336;2022-11-15T10:16:03;12.40;99.90
14471;DHT22;7321;50.802;4.336;2022-11-15T10:18:35;12.50;99.90
14471;DHT22;7321;50.802;4.336;2022-11-15T10:21:33;12.60;99.90
14471;DHT22;7321;50.802;4.336;2022-11-15T10:24:01;12.80;99.90
14471;DHT22;7321;50.802;4.336;2022-11-15T10:26:27;12.90;99.90
14471;DHT22;7321;50.802;4.336;2022-11-15T10:28:53;13.00;99.90
14471;DHT22;7321;50.802;4.336;2022-11-15T10:31:28;13.00;99.90
14471;DHT22;7321;50.802;4.336;2022-11-15T10:36:46;13.10;99.90
14471;DHT22;7321;50.802;4.336;2022-11-15T10:39:19;13.10;99.90
14471;DHT22;7321;50.802;4.336;2022-11-15T10:41:44;13.10;99.90
14471;DHT22;7321;50.802;4.336;2022-11-15T10:46:44;13.10;99.90
14471;DHT22;7321;50.802;4.336;2022-11-15T10:49:23;13.20;99.90
14471;DHT22;7321;50.802;4.336;2022-11-15T10:52:02;13.30;99.90
14471;DHT22;7321;50.802;4.336;2022-11-15T10:54:34;13.30;99.90
14471;DHT22;7321;50.802;4.336;2022-11-15T10:57:07;13.40;99.90
14471;DHT22;7321;50.802;4.336;2022-11-15T10:59:36;13.40;99.90
14471;DHT22;7321;50.802;4.336;2022-11-15T11:02:27;13.40;99.90
14471;DHT22;7321;50.802;4.336;2022-11-15T11:04:53;13.50;99.90
14471;DHT22;7321;50.802;4.336;2022-11-15T11:07:28;13.50;99.90
14471;DHT22;7321;50.802;4.336;2022-11-15T11:10:18;13.50;99.90
14471;DHT22;7321;50.802;4.336;2022-11-15T11:12:44;13.50;99.90
14471;DHT22;7321;50.802;4.336;2022-11-15T11:15:13;13.50;99.90
14471;DHT22;7321;50.802;4.336;2022-11-15T11:18:06;13.60;99.90
14471;DHT22;7321;50.802;4.336;2022-11-15T11:37:12;14.00;99.90
14471;DHT22;7321;50.802;4.336;2022-11-15T11:48:13;14.20;99.90
14471;DHT22;7321;50.802;4.336;2022-11-15T11:50:41;14.20;99.90
14471;DHT22;7321;50.802;4.336;2022-11-15T11:56:31;14.30;99.90
14471;DHT22;7321;50.802;4.336;2022-11-15T12:02:25;14.30;99.90
14471;DHT22;7321;50.802;4.336;2022-11-15T12:04:58;14.20;99.90
14471;DHT22;7321;50.802;4.336;2022-11-15T12:07:33;14.10;99.90
14471;DHT22;7321;50.802;4.336;2022-11-15T12:13:14;14.40;99.90
14471;DHT22;7321;50.802;4.336;2022-11-15T12:15:53;14.40;99.90
14471;DHT22;7321;50.802;4.336;2022-11-15T12:18:22;14.60;99.90
14471;DHT22;7321;50.802;4.336;2022-11-15T12:21:15;14.50;99.90
14471;DHT22;7321;50.802;4.336;2022-11-15T12:23:47;14.40;99.90
14471;DHT22;7321;50.802;4.336;2022-11-15T12:26:22;14.30;99.90
14471;DHT22;7321;50.802;4.336;2022-11-15T12:28:55;14.10;99.90
14471;DHT22;7321;50.802;4.336;2022-11-15T12:31:38;14.10;99.90
14471;DHT22;7321;50.802;4.336;2022-11-15T12:34:15;14.20;99.90
14471;DHT22;7321;50.802;4.336;2022-11-15T12:36:55;14.10;99.90
14471;DHT22;7321;50.802;4.336;2022-11-15T12:47:25;14.00;99.90
14471;DHT22;7321;50.802;4.336;2022-11-15T12:49:52;14.00;99.90
14471;DHT22;7321;50.802;4.336;2022-11-15T12:52:18;14.00;99.90
14471;DHT22;7321;50.802;4.336;2022-11-15T12:54:56;14.10;99.90
14471;DHT22;7321;50.802;4.336;2022-11-15T12:57:35;14.20;99.90
14471;DHT22;7321;50.802;4.336;2022-11-15T13:00:05;14.30;99.90
14471;DHT22;7321;50.802;4.336;2022-11-15T13:02:47;14.30;99.90
14471;DHT22;7321;50.802;4.336;2022-11-15T13:12:59;14.70;99.90
14471;DHT22;7321;50.802;4.336;2022-11-15T13:18:38;14.70;99.90
14471;DHT22;7321;50.802;4.336;2022-11-15T13:21:18;14.60;99.90
14471;DHT22;7321;50.802;4.336;2022-11-15T13:24:03;14.60;99.90
14471;DHT22;7321;50.802;4.336;2022-11-15T13:26:29;14.40;99.90
14471;DHT22;7321;50.802;4.336;2022-11-15T13:28:54;14.40;99.90
14471;DHT22;7321;50.802;4.336;2022-11-15T13:31:25;14.40;99.90
14471;DHT22;7321;50.802;4.336;2022-11-15T13:33:52;14.40;99.90
14471;DHT22;7321;50.802;4.336;2022-11-15T13:36:19;14.40;99.90
14471;DHT22;7321;50.802;4.336;2022-11-15T13:39:12;14.40;99.90
14471;DHT22;7321;50.802;4.336;2022-11-15T13:41:49;14.50;99.90
14471;DHT22;7321;50.802;4.336;2022-11-15T13:44:24;14.40;99.90
14471;DHT22;7321;50.802;4.336;2022-11-15T13:47:21;14.30;99.90
14471;DHT22;7321;50.802;4.336;2022-11-15T13:49:46;14.40;99.90
14471;DHT22;7321;50.802;4.336;2022-11-15T13:52:14;14.30;99.90
14471;DHT22;7321;50.802;4.336;2022-11-15T13:54:47;14.30;99.90
14471;DHT22;7321;50.802;4.336;2022-11-15T13:57:36;14.40;99.90
14471;DHT22;7321;50.802;4.336;2022-11-15T14:00:30;14.50;99.90
14471;DHT22;7321;50.802;4.336;2022-11-15T14:02:54;14.60;99.90
14471;DHT22;7321;50.802;4.336;2022-11-15T14:05:23;14.70;99.90
14471;DHT22;7321;50.802;4.336;2022-11-15T14:08:00;14.60;99.90
14471;DHT22;7321;50.802;4.336;2022-11-15T14:10:32;14.60;99.90
14471;DHT22;7321;50.802;4.336;2022-11-15T14:12:59;14.50;99.90
14471;DHT22;7321;50.802;4.336;2022-11-15T14:17:56;14.30;99.90
14471;DHT22;7321;50.802;4.336;2022-11-15T14:22:55;14.30;99.90
14471;DHT22;7321;50.802;4.336;2022-11-15T14:25:24;14.20;99.90
14471;DHT22;7321;50.802;4.336;2022-11-15T14:30:34;14.30;99.90
14471;DHT22;7321;50.802;4.336;2022-11-15T14:33:00;14.10;99.90
14471;DHT22;7321;50.802;4.336;2022-11-15T14:35:26;14.00;99.90
14471;DHT22;7321;50.802;4.336;2022-11-15T14:37:52;14.10;99.90
14471;DHT22;7321;50.802;4.336;2022-11-15T14:40:20;14.10;99.90
14471;DHT22;7321;50.802;4.336;2022-11-15T14:42:48;14.00;99.90
14471;DHT22;7321;50.802;4.336;2022-11-15T14:45:17;14.00;99.90
14471;DHT22;7321;50.802;4.336;2022-11-15T14:47:43;14.00;99.90
14471;DHT22;7321;50.802;4.336;2022-11-15T14:50:18;13.90;99.90
14471;DHT22;7321;50.802;4.336;2022-11-15T14:52:44;14.00;99.90
14471;DHT22;7321;50.802;4.336;2022-11-15T14:55:19;13.90;99.90
14471;DHT22;7321;50.802;4.336;2022-11-15T14:57:45;14.10;99.90
14471;DHT22;7321;50.802;4.336;2022-11-15T15:00:12;14.00;99.90
14471;DHT22;7321;50.802;4.336;2022-11-15T15:02:39;13.90;99.90
14471;DHT22;7321;50.802;4.336;2022-11-15T15:05:30;13.80;99.90
14471;DHT22;7321;50.802;4.336;2022-11-15T15:07:56;13.80;99.90
14471;DHT22;7321;50.802;4.336;2022-11-15T15:10:22;13.90;99.90
14471;DHT22;7321;50.802;4.336;2022-11-15T15:12:48;13.80;99.90
14471;DHT22;7321;50.802;4.336;2022-11-15T15:15:23;13.80;99.90
14471;DHT22;7321;50.802;4.336;2022-11-15T15:17:49;13.80;99.90
14471;DHT22;7321;50.802;4.336;2022-11-15T15:20:15;13.80;99.90
14471;DHT22;7321;50.802;4.336;2022-11-15T15:22:41;13.80;99.90
14471;DHT22;7321;50.802;4.336;2022-11-15T15:25:34;13.70;99.90
14471;DHT22;7321;50.802;4.336;2022-11-15T15:28:01;13.70;99.90
14471;DHT22;7321;50.802;4.336;2022-11-15T15:30:29;13.70;99.90
14471;DHT22;7321;50.802;4.336;2022-11-15T15:32:55;13.70;99.90
14471;DHT22;7321;50.802;4.336;2022-11-15T15:35:21;13.70;99.90
14471;DHT22;7321;50.802;4.336;2022-11-15T15:37:48;13.70;99.90
14471;DHT22;7321;50.802;4.336;2022-11-15T15:40:25;13.70;99.90
14471;DHT22;7321;50.802;4.336;2022-11-15T15:42:51;13.70;99.90
14471;DHT22;7321;50.802;4.336;2022-11-15T15:45:18;13.80;99.90
14471;DHT22;7321;50.802;4.336;2022-11-15T15:47:44;13.80;99.90
14471;DHT22;7321;50.802;4.336;2022-11-15T15:50:27;13.60;99.90
14471;DHT22;7321;50.802;4.336;2022-11-15T15:52:56;13.60;99.90
14471;DHT22;7321;50.802;4.336;2022-11-15T15:55:23;13.50;99.90
14471;DHT22;7321;50.802;4.336;2022-11-15T15:57:49;13.50;99.90
14471;DHT22;7321;50.802;4.336;2022-11-15T16:00:15;13.50;99.90
14471;DHT22;7321;50.802;4.336;2022-11-15T16:02:41;13.40;99.90
14471;DHT22;7321;50.802;4.336;2022-11-15T16:05:08;13.50;99.90
14471;DHT22;7321;50.802;4.336;2022-11-15T16:07:35;13.50;99.90
14471;DHT22;7321;50.802;4.336;2022-11-15T16:10:01;13.60;99.90
14471;DHT22;7321;50.802;4.336;2022-11-15T16:12:32;13.50;99.90
14471;DHT22;7321;50.802;4.336;2022-11-15T16:14:58;13.50;99.90
14471;DHT22;7321;50.802;4.336;2022-11-15T16:17:37;13.50;99.90
14471;DHT22;7321;50.802;4.336;2022-11-15T16:20:03;13.40;99.90
14471;DHT22;7321;50.802;4.336;2022-11-15T16:22:30;13.40;99.90
14471;DHT22;7321;50.802;4.336;2022-11-15T16:24:56;13.50;99.90
14471;DHT22;7321;50.802;4.336;2022-11-15T16:27:22;13.40;99.90
14471;DHT22;7321;50.802;4.336;2022-11-15T16:29:49;13.30;99.90
14471;DHT22;7321;50.802;4.336;2022-11-15T16:32:15;13.40;99.90
14471;DHT22;7321;50.802;4.336;2022-11-15T16:34:41;13.40;99.90
14471;DHT22;7321;50.802;4.336;2022-11-15T16:37:23;13.50;99.90
14471;DHT22;7321;50.802;4.336;2022-11-15T16:39:49;13.50;99.90
14471;DHT22;7321;50.802;4.336;2022-11-15T16:42:15;13.50;99.90
14471;DHT22;7321;50.802;4.336;2022-11-15T16:44:41;13.30;99.90
14471;DHT22;7321;50.802;4.336;2022-11-15T16:47:17;13.30;99.90
14471;DHT22;7321;50.802;4.336;2022-11-15T16:49:44;13.40;99.90
14471;DHT22;7321;50.802;4.336;2022-11-15T16:52:11;13.40;99.90
14471;DHT22;7321;50.802;4.336;2022-11-15T16:54:36;13.40;99.90
14471;DHT22;7321;50.802;4.336;2022-11-15T16:57:02;13.40;99.90
14471;DHT22;7321;50.802;4.336;2022-11-15T16:59:28;13.30;99.90
14471;DHT22;7321;50.802;4.336;2022-11-15T17:01:55;13.30;99.90
14471;DHT22;7321;50.802;4.336;2022-11-15T17:04:21;13.30;99.90
14471;DHT22;7321;50.802;4.336;2022-11-15T17:06:48;13.30;99.90
14471;DHT22;7321;50.802;4.336;2022-11-15T17:09:21;13.30;99.90
14471;DHT22;7321;50.802;4.336;2022-11-15T17:11:50;13.20;99.90
14471;DHT22;7321;50.802;4.336;2022-11-15T17:14:16;13.30;99.90
14471;DHT22;7321;50.802;4.336;2022-11-15T17:16:42;13.40;99.90
14471;DHT22;7321;50.802;4.336;2022-11-15T17:19:17;13.30;99.90
14471;DHT22;7321;50.802;4.336;2022-11-15T17:21:44;13.30;99.90
14471;DHT22;7321;50.802;4.336;2022-11-15T17:24:10;13.40;99.90
14471;DHT22;7321;50.802;4.336;2022-11-15T17:26:36;13.20;99.90
14471;DHT22;7321;50.802;4.336;2022-11-15T17:29:10;13.30;99.90
14471;DHT22;7321;50.802;4.336;2022-11-15T17:31:37;13.30;99.90
14471;DHT22;7321;50.802;4.336;2022-11-15T17:34:04;13.30;99.90
14471;DHT22;7321;50.802;4.336;2022-11-15T17:36:34;13.40;99.90
14471;DHT22;7321;50.802;4.336;2022-11-15T17:39:00;13.50;99.90
14471;DHT22;7321;50.802;4.336;2022-11-15T17:41:29;13.50;99.90
14471;DHT22;7321;50.802;4.336;2022-11-15T17:43:56;13.50;99.90
14471;DHT22;7321;50.802;4.336;2022-11-15T17:46:22;13.40;99.90
14471;DHT22;7321;50.802;4.336;2022-11-15T17:48:52;13.60;99.90
14471;DHT22;7321;50.802;4.336;2022-11-15T17:51:24;13.60;99.90